sensor_id;sensor_type;location;lat;lon;timestamp;P1;durP1;ratioP1;P2;durP2;ratioP2
54143;SDS011;40050;47.324;18.792;2024-03-23T00:54:02;37.70;;;20.36;;
54143;SDS011;40050;47.324;18.792;2024-03-23T00:56:03;38.34;;;20.85;;
54143;SDS011;40050;47.324;18.792;2024-03-23T00:58:04;42.00;;;21.06;;
54143;SDS011;40050;47.324;18.792;2024-03-23T01:00:05;37.41;;;19.96;;
54143;SDS011;40050;47.324;18.792;2024-03-23T01:02:19;37.68;;;20.26;;
54143;SDS011;40050;47.324;18.792;2024-03-23T01:04:19;37.79;;;20.56;;
54143;SDS011;40050;47.324;18.792;2024-03-23T01:06:20;41.80;;;19.76;;
54143;SDS011;40050;47.324;18.792;2024-03-23T01:08:21;36.74;;;19.17;;
54143;SDS011;40050;47.324;18.792;2024-03-23T01:10:22;37.11;;;19.96;;
54143;SDS011;40050;47.324;18.792;2024-03-23T01:12:23;38.17;;;19.86;;
54143;SDS011;40050;47.324;18.792;2024-03-23T01:14:24;34.55;;;19.17;;
54143;SDS011;40050;47.324;18.792;2024-03-23T01:16:26;35.64;;;20.17;;
54143;SDS011;40050;47.324;18.792;2024-03-23T01:18:27;33.36;;;19.28;;
54143;SDS011;40050;47.324;18.792;2024-03-23T01:20:28;33.66;;;17.69;;
54143;SDS011;40050;47.324;18.792;2024-03-23T01:22:29;39.04;;;19.48;;
54143;SDS011;40050;47.324;18.792;2024-03-23T01:24:30;35.02;;;19.48;;
54143;SDS011;40050;47.324;18.792;2024-03-23T01:26:30;34.82;;;19.28;;
54143;SDS011;40050;47.324;18.792;2024-03-23T01:28:31;38.44;;;19.38;;
54143;SDS011;40050;47.324;18.792;2024-03-23T01:30:33;38.48;;;19.27;;
54143;SDS011;40050;47.324;18.792;2024-03-23T01:32:33;35.86;;;19.37;;
54143;SDS011;40050;47.324;18.792;2024-03-23T01:34:34;37.41;;;19.96;;
54143;SDS011;40050;47.324;18.792;2024-03-23T01:36:35;35.67;;;19.17;;
54143;SDS011;40050;47.324;18.792;2024-03-23T01:38:36;35.47;;;19.46;;
54143;SDS011;40050;47.324;18.792;2024-03-23T01:40:37;39.14;;;20.36;;
54143;SDS011;40050;47.324;18.792;2024-03-23T01:42:39;39.71;;;20.66;;
54143;SDS011;40050;47.324;18.792;2024-03-23T01:44:40;35.13;;;19.67;;
54143;SDS011;40050;47.324;18.792;2024-03-23T01:46:40;33.23;;;19.37;;
54143;SDS011;40050;47.324;18.792;2024-03-23T01:48:41;37.92;;;20.17;;
54143;SDS011;40050;47.324;18.792;2024-03-23T01:50:42;41.13;;;21.55;;
54143;SDS011;40050;47.324;18.792;2024-03-23T01:52:43;41.60;;;21.35;;
54143;SDS011;40050;47.324;18.792;2024-03-23T01:54:44;40.72;;;22.04;;
54143;SDS011;40050;47.324;18.792;2024-03-23T01:56:45;42.38;;;20.85;;
54143;SDS011;40050;47.324;18.792;2024-03-23T01:58:46;41.44;;;21.54;;
54143;SDS011;40050;47.324;18.792;2024-03-23T02:00:47;36.19;;;20.55;;
54143;SDS011;40050;47.324;18.792;2024-03-23T02:02:48;39.79;;;19.85;;
54143;SDS011;40050;47.324;18.792;2024-03-23T02:04:49;37.22;;;20.84;;
54143;SDS011;40050;47.324;18.792;2024-03-23T02:06:50;37.13;;;20.05;;
54143;SDS011;40050;47.324;18.792;2024-03-23T02:08:54;36.07;;;19.45;;
54143;SDS011;40050;47.324;18.792;2024-03-23T02:10:54;38.85;;;20.55;;
54143;SDS011;40050;47.324;18.792;2024-03-23T02:12:55;36.97;;;20.06;;
54143;SDS011;40050;47.324;18.792;2024-03-23T02:14:56;37.92;;;20.25;;
54143;SDS011;40050;47.324;18.792;2024-03-23T02:16:57;41.45;;;20.95;;
54143;SDS011;40050;47.324;18.792;2024-03-23T02:18:58;36.88;;;19.46;;
54143;SDS011;40050;47.324;18.792;2024-03-23T02:20:59;41.14;;;21.14;;
54143;SDS011;40050;47.324;18.792;2024-03-23T02:23:13;38.74;;;20.25;;
54143;SDS011;40050;47.324;18.792;2024-03-23T02:25:08;38.83;;;20.84;;
54143;SDS011;40050;47.324;18.792;2024-03-23T02:27:09;40.17;;;20.45;;
54143;SDS011;40050;47.324;18.792;2024-03-23T02:29:10;39.31;;;19.85;;
54143;SDS011;40050;47.324;18.792;2024-03-23T02:31:10;36.76;;;19.26;;
54143;SDS011;40050;47.324;18.792;2024-03-23T02:33:11;40.57;;;20.45;;
54143;SDS011;40050;47.324;18.792;2024-03-23T02:35:12;38.63;;;20.25;;
54143;SDS011;40050;47.324;18.792;2024-03-23T02:37:13;40.04;;;20.44;;
54143;SDS011;40050;47.324;18.792;2024-03-23T02:39:14;38.53;;;20.25;;
54143;SDS011;40050;47.324;18.792;2024-03-23T02:41:15;38.11;;;20.64;;
54143;SDS011;40050;47.324;18.792;2024-03-23T02:43:16;37.63;;;20.54;;
54143;SDS011;40050;47.324;18.792;2024-03-23T02:45:17;35.82;;;20.34;;
54143;SDS011;40050;47.324;18.792;2024-03-23T02:47:18;33.08;;;18.56;;
54143;SDS011;40050;47.324;18.792;2024-03-23T02:49:19;34.52;;;18.86;;
54143;SDS011;40050;47.324;18.792;2024-03-23T02:51:20;33.84;;;19.65;;
54143;SDS011;40050;47.324;18.792;2024-03-23T02:53:21;35.46;;;19.25;;
54143;SDS011;40050;47.324;18.792;2024-03-23T02:55:22;34.30;;;18.85;;
54143;SDS011;40050;47.324;18.792;2024-03-23T02:57:23;34.70;;;19.45;;
54143;SDS011;40050;47.324;18.792;2024-03-23T02:59:24;35.73;;;19.05;;
54143;SDS011;40050;47.324;18.792;2024-03-23T03:01:25;34.09;;;19.25;;
54143;SDS011;40050;47.324;18.792;2024-03-23T03:03:26;36.97;;;19.65;;
54143;SDS011;40050;47.324;18.792;2024-03-23T03:05:27;37.34;;;19.26;;
54143;SDS011;40050;47.324;18.792;2024-03-23T03:07:27;37.53;;;19.77;;
54143;SDS011;40050;47.324;18.792;2024-03-23T03:09:28;38.10;;;20.36;;
54143;SDS011;40050;47.324;18.792;2024-03-23T03:11:29;34.60;;;19.76;;
54143;SDS011;40050;47.324;18.792;2024-03-23T03:13:30;37.06;;;20.35;;
54143;SDS011;40050;47.324;18.792;2024-03-23T03:15:31;38.20;;;20.54;;
54143;SDS011;40050;47.324;18.792;2024-03-23T03:17:32;41.11;;;20.73;;
54143;SDS011;40050;47.324;18.792;2024-03-23T03:19:33;36.31;;;20.63;;
54143;SDS011;40050;47.324;18.792;2024-03-23T03:21:34;42.00;;;22.31;;
54143;SDS011;40050;47.324;18.792;2024-03-23T03:23:35;42.24;;;22.50;;
54143;SDS011;40050;47.324;18.792;2024-03-23T03:25:36;39.84;;;21.41;;
54143;SDS011;40050;47.324;18.792;2024-03-23T03:27:37;42.76;;;22.20;;
54143;SDS011;40050;47.324;18.792;2024-03-23T03:29:38;41.16;;;22.10;;
54143;SDS011;40050;47.324;18.792;2024-03-23T03:31:39;41.30;;;22.39;;
54143;SDS011;40050;47.324;18.792;2024-03-23T03:33:40;42.59;;;21.79;;
54143;SDS011;40050;47.324;18.792;2024-03-23T03:35:41;41.85;;;21.50;;
54143;SDS011;40050;47.324;18.792;2024-03-23T03:37:42;37.22;;;21.80;;
54143;SDS011;40050;47.324;18.792;2024-03-23T03:39:43;44.44;;;22.10;;
54143;SDS011;40050;47.324;18.792;2024-03-23T03:41:44;39.23;;;21.60;;
54143;SDS011;40050;47.324;18.792;2024-03-23T03:43:44;42.08;;;21.70;;
54143;SDS011;40050;47.324;18.792;2024-03-23T03:45:52;40.00;;;21.40;;
54143;SDS011;40050;47.324;18.792;2024-03-23T03:47:46;40.55;;;22.09;;
54143;SDS011;40050;47.324;18.792;2024-03-23T03:49:47;43.65;;;22.88;;
54143;SDS011;40050;47.324;18.792;2024-03-23T03:51:48;40.21;;;22.19;;
54143;SDS011;40050;47.324;18.792;2024-03-23T03:53:49;32.20;;;18.23;;
54143;SDS011;40050;47.324;18.792;2024-03-23T03:55:50;33.61;;;18.64;;
54143;SDS011;40050;47.324;18.792;2024-03-23T03:57:51;36.90;;;18.74;;
54143;SDS011;40050;47.324;18.792;2024-03-23T03:59:52;38.88;;;20.03;;
54143;SDS011;40050;47.324;18.792;2024-03-23T04:01:53;36.86;;;20.03;;
54143;SDS011;40050;47.324;18.792;2024-03-23T04:03:54;42.43;;;19.92;;
54143;SDS011;40050;47.324;18.792;2024-03-23T04:05:55;38.09;;;21.30;;
54143;SDS011;40050;47.324;18.792;2024-03-23T04:07:56;36.72;;;21.10;;
54143;SDS011;40050;47.324;18.792;2024-03-23T04:09:57;38.12;;;20.01;;
54143;SDS011;40050;47.324;18.792;2024-03-23T04:11:57;38.26;;;20.39;;
54143;SDS011;40050;47.324;18.792;2024-03-23T04:13:58;44.52;;;21.77;;
54143;SDS011;40050;47.324;18.792;2024-03-23T04:15:59;36.21;;;20.48;;
54143;SDS011;40050;47.324;18.792;2024-03-23T04:18:00;36.29;;;20.28;;
54143;SDS011;40050;47.324;18.792;2024-03-23T04:20:01;37.88;;;21.27;;
54143;SDS011;40050;47.324;18.792;2024-03-23T04:22:02;39.57;;;20.28;;
54143;SDS011;40050;47.324;18.792;2024-03-23T04:24:03;36.14;;;20.28;;
54143;SDS011;40050;47.324;18.792;2024-03-23T04:26:04;36.99;;;20.57;;
54143;SDS011;40050;47.324;18.792;2024-03-23T04:28:04;40.51;;;20.88;;
54143;SDS011;40050;47.324;18.792;2024-03-23T04:30:06;35.04;;;19.39;;
54143;SDS011;40050;47.324;18.792;2024-03-23T04:32:06;32.49;;;18.50;;
54143;SDS011;40050;47.324;18.792;2024-03-23T04:34:07;38.26;;;19.59;;
54143;SDS011;40050;47.324;18.792;2024-03-23T04:36:08;37.70;;;20.58;;
54143;SDS011;40050;47.324;18.792;2024-03-23T04:38:09;37.66;;;20.28;;
54143;SDS011;40050;47.324;18.792;2024-03-23T04:40:10;37.38;;;19.88;;
54143;SDS011;40050;47.324;18.792;2024-03-23T04:42:11;36.15;;;20.08;;
54143;SDS011;40050;47.324;18.792;2024-03-23T04:44:12;37.75;;;20.57;;
54143;SDS011;40050;47.324;18.792;2024-03-23T04:46:13;35.41;;;20.38;;
54143;SDS011;40050;47.324;18.792;2024-03-23T04:48:14;36.80;;;20.47;;
54143;SDS011;40050;47.324;18.792;2024-03-23T04:50:15;35.56;;;20.27;;
54143;SDS011;40050;47.324;18.792;2024-03-23T04:52:16;39.51;;;20.97;;
54143;SDS011;40050;47.324;18.792;2024-03-23T04:54:16;39.40;;;21.16;;
54143;SDS011;40050;47.324;18.792;2024-03-23T04:56:17;36.92;;;20.66;;
54143;SDS011;40050;47.324;18.792;2024-03-23T04:58:18;37.75;;;20.76;;
54143;SDS011;40050;47.324;18.792;2024-03-23T05:00:19;36.44;;;20.96;;
54143;SDS011;40050;47.324;18.792;2024-03-23T05:02:20;36.55;;;19.87;;
54143;SDS011;40050;47.324;18.792;2024-03-23T05:04:21;37.89;;;20.37;;
54143;SDS011;40050;47.324;18.792;2024-03-23T05:06:22;38.14;;;20.46;;
54143;SDS011;40050;47.324;18.792;2024-03-23T05:08:23;38.59;;;21.15;;
54143;SDS011;40050;47.324;18.792;2024-03-23T05:10:24;35.11;;;19.96;;
54143;SDS011;40050;47.324;18.792;2024-03-23T05:12:24;37.39;;;20.94;;
54143;SDS011;40050;47.324;18.792;2024-03-23T05:14:25;38.57;;;21.13;;
54143;SDS011;40050;47.324;18.792;2024-03-23T05:16:26;35.97;;;20.33;;
54143;SDS011;40050;47.324;18.792;2024-03-23T05:18:27;39.86;;;21.21;;
54143;SDS011;40050;47.324;18.792;2024-03-23T05:20:28;38.64;;;20.82;;
54143;SDS011;40050;47.324;18.792;2024-03-23T05:22:29;35.29;;;19.64;;
54143;SDS011;40050;47.324;18.792;2024-03-23T05:24:30;38.88;;;20.72;;
54143;SDS011;40050;47.324;18.792;2024-03-23T05:26:31;36.06;;;19.82;;
54143;SDS011;40050;47.324;18.792;2024-03-23T05:28:32;36.42;;;20.02;;
54143;SDS011;40050;47.324;18.792;2024-03-23T05:30:33;37.52;;;20.80;;
54143;SDS011;40050;47.324;18.792;2024-03-23T05:32:34;38.65;;;19.82;;
54143;SDS011;40050;47.324;18.792;2024-03-23T05:34:35;39.68;;;20.51;;
54143;SDS011;40050;47.324;18.792;2024-03-23T05:36:36;40.78;;;20.41;;
54143;SDS011;40050;47.324;18.792;2024-03-23T05:38:37;37.03;;;20.32;;
54143;SDS011;40050;47.324;18.792;2024-03-23T05:40:38;36.61;;;20.23;;
54143;SDS011;40050;47.324;18.792;2024-03-23T05:42:41;39.13;;;21.02;;
54143;SDS011;40050;47.324;18.792;2024-03-23T05:46:48;36.53;;;20.42;;
54143;SDS011;40050;47.324;18.792;2024-03-23T05:48:49;34.17;;;19.82;;
54143;SDS011;40050;47.324;18.792;2024-03-23T05:50:48;36.94;;;20.39;;
54143;SDS011;40050;47.324;18.792;2024-03-23T05:52:49;34.56;;;20.18;;
54143;SDS011;40050;47.324;18.792;2024-03-23T05:54:49;36.95;;;21.16;;
54143;SDS011;40050;47.324;18.792;2024-03-23T05:56:54;35.40;;;20.27;;
54143;SDS011;40050;47.324;18.792;2024-03-23T05:58:51;38.33;;;21.34;;
54143;SDS011;40050;47.324;18.792;2024-03-23T06:00:57;39.48;;;22.22;;
54143;SDS011;40050;47.324;18.792;2024-03-23T06:02:54;39.06;;;21.13;;
54143;SDS011;40050;47.324;18.792;2024-03-23T06:04:54;41.91;;;23.96;;
54143;SDS011;40050;47.324;18.792;2024-03-23T06:06:55;41.62;;;22.88;;
54143;SDS011;40050;47.324;18.792;2024-03-23T06:08:56;40.26;;;23.08;;
54143;SDS011;40050;47.324;18.792;2024-03-23T06:10:57;40.21;;;23.48;;
54143;SDS011;40050;47.324;18.792;2024-03-23T06:12:58;38.81;;;23.28;;
54143;SDS011;40050;47.324;18.792;2024-03-23T06:14:59;37.76;;;23.21;;
54143;SDS011;40050;47.324;18.792;2024-03-23T06:17:00;36.32;;;21.91;;
54143;SDS011;40050;47.324;18.792;2024-03-23T06:19:01;37.07;;;21.03;;
54143;SDS011;40050;47.324;18.792;2024-03-23T06:21:02;34.57;;;21.14;;
54143;SDS011;40050;47.324;18.792;2024-03-23T06:23:03;35.58;;;20.94;;
54143;SDS011;40050;47.324;18.792;2024-03-23T06:25:04;34.79;;;20.85;;
54143;SDS011;40050;47.324;18.792;2024-03-23T06:27:05;34.65;;;20.68;;
54143;SDS011;40050;47.324;18.792;2024-03-23T06:29:06;34.34;;;19.42;;
54143;SDS011;40050;47.324;18.792;2024-03-23T06:31:08;37.76;;;20.73;;
54143;SDS011;40050;47.324;18.792;2024-03-23T06:33:07;34.75;;;20.05;;
54143;SDS011;40050;47.324;18.792;2024-03-23T06:35:08;37.01;;;20.44;;
54143;SDS011;40050;47.324;18.792;2024-03-23T06:37:09;35.00;;;20.44;;
54143;SDS011;40050;47.324;18.792;2024-03-23T06:39:10;34.01;;;19.36;;
54143;SDS011;40050;47.324;18.792;2024-03-23T06:41:11;32.61;;;19.38;;
54143;SDS011;40050;47.324;18.792;2024-03-23T06:43:12;32.13;;;19.59;;
54143;SDS011;40050;47.324;18.792;2024-03-23T06:45:13;35.08;;;20.98;;
54143;SDS011;40050;47.324;18.792;2024-03-23T06:47:14;34.04;;;20.09;;
54143;SDS011;40050;47.324;18.792;2024-03-23T06:49:16;39.30;;;21.19;;
54143;SDS011;40050;47.324;18.792;2024-03-23T06:51:17;43.33;;;24.64;;
54143;SDS011;40050;47.324;18.792;2024-03-23T06:53:18;42.47;;;24.24;;
54143;SDS011;40050;47.324;18.792;2024-03-23T06:55:18;49.37;;;29.94;;
54143;SDS011;40050;47.324;18.792;2024-03-23T06:57:19;51.65;;;29.84;;
54143;SDS011;40050;47.324;18.792;2024-03-23T06:59:20;49.18;;;29.09;;
54143;SDS011;40050;47.324;18.792;2024-03-23T07:01:21;49.51;;;29.21;;
54143;SDS011;40050;47.324;18.792;2024-03-23T07:03:22;44.03;;;26.27;;
54143;SDS011;40050;47.324;18.792;2024-03-23T07:05:23;38.91;;;24.11;;
54143;SDS011;40050;47.324;18.792;2024-03-23T07:07:24;42.16;;;26.49;;
54143;SDS011;40050;47.324;18.792;2024-03-23T07:09:25;38.53;;;24.32;;
54143;SDS011;40050;47.324;18.792;2024-03-23T07:11:26;42.59;;;25.02;;
54143;SDS011;40050;47.324;18.792;2024-03-23T07:13:27;42.80;;;25.40;;
54143;SDS011;40050;47.324;18.792;2024-03-23T07:15:28;39.30;;;23.83;;
54143;SDS011;40050;47.324;18.792;2024-03-23T07:17:29;41.20;;;24.05;;
54143;SDS011;40050;47.324;18.792;2024-03-23T07:19:29;43.37;;;24.26;;
54143;SDS011;40050;47.324;18.792;2024-03-23T07:21:30;111.70;;;53.65;;
54143;SDS011;40050;47.324;18.792;2024-03-23T07:23:32;69.21;;;37.43;;
54143;SDS011;40050;47.324;18.792;2024-03-23T07:25:33;69.04;;;38.23;;
54143;SDS011;40050;47.324;18.792;2024-03-23T07:27:36;77.32;;;41.59;;
54143;SDS011;40050;47.324;18.792;2024-03-23T07:29:37;115.76;;;64.27;;
54143;SDS011;40050;47.324;18.792;2024-03-23T07:31:39;91.14;;;50.23;;
54143;SDS011;40050;47.324;18.792;2024-03-23T07:33:45;83.34;;;44.48;;
54143;SDS011;40050;47.324;18.792;2024-03-23T07:35:42;81.39;;;45.37;;
54143;SDS011;40050;47.324;18.792;2024-03-23T07:37:43;35.72;;;21.80;;
54143;SDS011;40050;47.324;18.792;2024-03-23T07:39:43;39.26;;;26.38;;
54143;SDS011;40050;47.324;18.792;2024-03-23T07:41:57;57.59;;;36.11;;
54143;SDS011;40050;47.324;18.792;2024-03-23T07:43:56;56.08;;;34.84;;
54143;SDS011;40050;47.324;18.792;2024-03-23T07:46:06;38.11;;;25.00;;
54143;SDS011;40050;47.324;18.792;2024-03-23T07:47:58;24.80;;;16.39;;
54143;SDS011;40050;47.324;18.792;2024-03-23T07:49:58;21.57;;;14.61;;
54143;SDS011;40050;47.324;18.792;2024-03-23T07:51:59;72.84;;;41.93;;
54143;SDS011;40050;47.324;18.792;2024-03-23T07:54:01;26.76;;;17.49;;
54143;SDS011;40050;47.324;18.792;2024-03-23T07:56:03;24.20;;;15.01;;
54143;SDS011;40050;47.324;18.792;2024-03-23T07:58:03;23.44;;;14.51;;
54143;SDS011;40050;47.324;18.792;2024-03-23T08:00:14;23.45;;;14.71;;
54143;SDS011;40050;47.324;18.792;2024-03-23T08:02:13;22.14;;;14.12;;
54143;SDS011;40050;47.324;18.792;2024-03-23T08:04:15;25.89;;;15.91;;
54143;SDS011;40050;47.324;18.792;2024-03-23T08:06:16;23.89;;;17.01;;
54143;SDS011;40050;47.324;18.792;2024-03-23T08:08:16;23.25;;;15.52;;
54143;SDS011;40050;47.324;18.792;2024-03-23T08:10:17;22.29;;;14.73;;
54143;SDS011;40050;47.324;18.792;2024-03-23T08:12:18;25.24;;;16.74;;
54143;SDS011;40050;47.324;18.792;2024-03-23T08:14:19;29.05;;;18.32;;
54143;SDS011;40050;47.324;18.792;2024-03-23T08:16:20;29.97;;;18.83;;
54143;SDS011;40050;47.324;18.792;2024-03-23T08:18:21;30.58;;;17.24;;
54143;SDS011;40050;47.324;18.792;2024-03-23T08:20:22;23.79;;;14.46;;
54143;SDS011;40050;47.324;18.792;2024-03-23T08:22:23;20.01;;;12.38;;
54143;SDS011;40050;47.324;18.792;2024-03-23T08:24:24;29.38;;;14.97;;
54143;SDS011;40050;47.324;18.792;2024-03-23T08:26:37;22.61;;;13.28;;
54143;SDS011;40050;47.324;18.792;2024-03-23T08:28:38;14.98;;;10.29;;
54143;SDS011;40050;47.324;18.792;2024-03-23T08:30:39;16.74;;;10.68;;
54143;SDS011;40050;47.324;18.792;2024-03-23T08:32:41;12.23;;;8.89;;
54143;SDS011;40050;47.324;18.792;2024-03-23T08:34:41;12.44;;;9.19;;
54143;SDS011;40050;47.324;18.792;2024-03-23T08:36:42;14.12;;;8.79;;
54143;SDS011;40050;47.324;18.792;2024-03-23T08:38:43;10.98;;;8.19;;
54143;SDS011;40050;47.324;18.792;2024-03-23T08:40:44;16.21;;;9.69;;
54143;SDS011;40050;47.324;18.792;2024-03-23T08:42:45;16.60;;;10.69;;
54143;SDS011;40050;47.324;18.792;2024-03-23T08:44:46;16.53;;;10.09;;
54143;SDS011;40050;47.324;18.792;2024-03-23T08:46:47;15.85;;;9.69;;
54143;SDS011;40050;47.324;18.792;2024-03-23T08:48:47;16.55;;;9.69;;
54143;SDS011;40050;47.324;18.792;2024-03-23T08:50:59;13.68;;;8.99;;
54143;SDS011;40050;47.324;18.792;2024-03-23T08:52:50;12.91;;;8.60;;
54143;SDS011;40050;47.324;18.792;2024-03-23T08:54:50;14.10;;;8.70;;
54143;SDS011;40050;47.324;18.792;2024-03-23T08:56:51;18.27;;;10.00;;
54143;SDS011;40050;47.324;18.792;2024-03-23T08:58:52;21.84;;;11.39;;
54143;SDS011;40050;47.324;18.792;2024-03-23T09:00:53;21.76;;;12.20;;
54143;SDS011;40050;47.324;18.792;2024-03-23T09:02:54;15.69;;;9.80;;
54143;SDS011;40050;47.324;18.792;2024-03-23T09:04:55;17.08;;;9.40;;
54143;SDS011;40050;47.324;18.792;2024-03-23T09:06:56;17.37;;;9.60;;
54143;SDS011;40050;47.324;18.792;2024-03-23T09:08:57;18.76;;;9.50;;
54143;SDS011;40050;47.324;18.792;2024-03-23T09:11:00;14.39;;;8.80;;
54143;SDS011;40050;47.324;18.792;2024-03-23T09:12:59;12.52;;;8.60;;
54143;SDS011;40050;47.324;18.792;2024-03-23T09:15:00;15.40;;;9.10;;
54143;SDS011;40050;47.324;18.792;2024-03-23T09:17:01;15.60;;;9.70;;
54143;SDS011;40050;47.324;18.792;2024-03-23T09:19:05;19.57;;;10.50;;
54143;SDS011;40050;47.324;18.792;2024-03-23T09:21:12;14.30;;;9.00;;
54143;SDS011;40050;47.324;18.792;2024-03-23T09:23:07;11.73;;;7.70;;
54143;SDS011;40050;47.324;18.792;2024-03-23T09:25:08;12.53;;;8.20;;
54143;SDS011;40050;47.324;18.792;2024-03-23T09:27:08;13.43;;;7.70;;
54143;SDS011;40050;47.324;18.792;2024-03-23T09:29:10;13.33;;;8.30;;
54143;SDS011;40050;47.324;18.792;2024-03-23T09:31:10;11.05;;;7.30;;
54143;SDS011;40050;47.324;18.792;2024-03-23T09:33:15;13.24;;;7.90;;
54143;SDS011;40050;47.324;18.792;2024-03-23T09:35:16;13.93;;;9.00;;
54143;SDS011;40050;47.324;18.792;2024-03-23T09:37:17;18.81;;;11.90;;
54143;SDS011;40050;47.324;18.792;2024-03-23T09:39:18;25.26;;;17.29;;
54143;SDS011;40050;47.324;18.792;2024-03-23T09:41:23;58.01;;;40.59;;
54143;SDS011;40050;47.324;18.792;2024-03-23T09:43:24;19.61;;;14.20;;
54143;SDS011;40050;47.324;18.792;2024-03-23T09:45:28;46.78;;;35.49;;
54143;SDS011;40050;47.324;18.792;2024-03-23T09:47:29;14.54;;;10.60;;
54143;SDS011;40050;47.324;18.792;2024-03-23T09:49:30;11.05;;;7.90;;
54143;SDS011;40050;47.324;18.792;2024-03-23T09:51:31;11.55;;;7.50;;
54143;SDS011;40050;47.324;18.792;2024-03-23T09:53:33;10.76;;;6.80;;
54143;SDS011;40050;47.324;18.792;2024-03-23T09:55:35;11.35;;;7.10;;
54143;SDS011;40050;47.324;18.792;2024-03-23T09:57:36;10.27;;;6.50;;
54143;SDS011;40050;47.324;18.792;2024-03-23T09:59:37;8.97;;;6.10;;
54143;SDS011;40050;47.324;18.792;2024-03-23T10:01:38;13.06;;;6.60;;
54143;SDS011;40050;47.324;18.792;2024-03-23T10:03:46;13.96;;;7.10;;
54143;SDS011;40050;47.324;18.792;2024-03-23T10:06:03;15.75;;;7.40;;
54143;SDS011;40050;47.324;18.792;2024-03-23T10:08:16;35.69;;;22.60;;
54143;SDS011;40050;47.324;18.792;2024-03-23T10:10:10;10.67;;;6.70;;
54143;SDS011;40050;47.324;18.792;2024-03-23T10:12:09;11.97;;;8.40;;
54143;SDS011;40050;47.324;18.792;2024-03-23T10:14:12;10.47;;;6.80;;
54143;SDS011;40050;47.324;18.792;2024-03-23T10:16:20;12.07;;;6.30;;
54143;SDS011;40050;47.324;18.792;2024-03-23T10:18:20;10.97;;;6.60;;
54143;SDS011;40050;47.324;18.792;2024-03-23T10:20:21;8.98;;;5.60;;
54143;SDS011;40050;47.324;18.792;2024-03-23T10:22:25;7.68;;;4.90;;
54143;SDS011;40050;47.324;18.792;2024-03-23T10:24:43;8.68;;;4.80;;
54143;SDS011;40050;47.324;18.792;2024-03-23T10:26:57;10.47;;;4.80;;
54143;SDS011;40050;47.324;18.792;2024-03-23T10:29:00;7.48;;;5.30;;
54143;SDS011;40050;47.324;18.792;2024-03-23T10:30:57;8.38;;;5.40;;
54143;SDS011;40050;47.324;18.792;2024-03-23T10:33:08;7.88;;;5.30;;
54143;SDS011;40050;47.324;18.792;2024-03-23T10:35:15;7.78;;;4.70;;
54143;SDS011;40050;47.324;18.792;2024-03-23T10:37:01;11.07;;;4.70;;
54143;SDS011;40050;47.324;18.792;2024-03-23T10:39:02;9.27;;;4.70;;
54143;SDS011;40050;47.324;18.792;2024-03-23T10:41:07;7.78;;;5.30;;
54143;SDS011;40050;47.324;18.792;2024-03-23T10:43:08;8.48;;;4.80;;
54143;SDS011;40050;47.324;18.792;2024-03-23T10:47:10;9.58;;;5.30;;
54143;SDS011;40050;47.324;18.792;2024-03-23T10:49:11;9.08;;;4.90;;
54143;SDS011;40050;47.324;18.792;2024-03-23T10:51:12;9.88;;;5.00;;
54143;SDS011;40050;47.324;18.792;2024-03-23T10:53:16;9.08;;;5.10;;
54143;SDS011;40050;47.324;18.792;2024-03-23T10:55:18;9.98;;;4.90;;
54143;SDS011;40050;47.324;18.792;2024-03-23T10:57:27;8.18;;;4.70;;
54143;SDS011;40050;47.324;18.792;2024-03-23T10:59:32;10.98;;;4.60;;
54143;SDS011;40050;47.324;18.792;2024-03-23T11:01:35;6.19;;;4.10;;
54143;SDS011;40050;47.324;18.792;2024-03-23T11:04:06;7.49;;;4.30;;
54143;SDS011;40050;47.324;18.792;2024-03-23T11:06:43;8.58;;;4.00;;
54143;SDS011;40050;47.324;18.792;2024-03-23T11:12:41;8.09;;;4.50;;
54143;SDS011;40050;47.324;18.792;2024-03-23T11:15:11;13.28;;;4.90;;
54143;SDS011;40050;47.324;18.792;2024-03-23T11:17:29;8.18;;;4.20;;
54143;SDS011;40050;47.324;18.792;2024-03-23T11:19:36;8.09;;;4.50;;
54143;SDS011;40050;47.324;18.792;2024-03-23T11:21:53;6.39;;;4.10;;
54143;SDS011;40050;47.324;18.792;2024-03-23T11:23:39;8.98;;;4.60;;
54143;SDS011;40050;47.324;18.792;2024-03-23T11:25:52;8.18;;;4.30;;
54143;SDS011;40050;47.324;18.792;2024-03-23T11:28:11;9.38;;;4.70;;
54143;SDS011;40050;47.324;18.792;2024-03-23T11:32:04;10.68;;;4.40;;
54143;SDS011;40050;47.324;18.792;2024-03-23T11:34:06;7.09;;;4.10;;
54143;SDS011;40050;47.324;18.792;2024-03-23T11:36:21;6.29;;;3.70;;
54143;SDS011;40050;47.324;18.792;2024-03-23T11:38:26;7.09;;;3.50;;
54143;SDS011;40050;47.324;18.792;2024-03-23T11:40:28;7.69;;;3.80;;
54143;SDS011;40050;47.324;18.792;2024-03-23T11:42:42;6.59;;;3.40;;
54143;SDS011;40050;47.324;18.792;2024-03-23T11:44:55;7.09;;;3.50;;
54143;SDS011;40050;47.324;18.792;2024-03-23T11:46:54;5.89;;;3.60;;
54143;SDS011;40050;47.324;18.792;2024-03-23T11:48:55;7.59;;;3.60;;
54143;SDS011;40050;47.324;18.792;2024-03-23T11:51:06;6.79;;;3.80;;
54143;SDS011;40050;47.324;18.792;2024-03-23T11:55:13;8.79;;;4.50;;
54143;SDS011;40050;47.324;18.792;2024-03-23T11:57:26;5.39;;;3.00;;
54143;SDS011;40050;47.324;18.792;2024-03-23T12:04:25;7.29;;;3.80;;
54143;SDS011;40050;47.324;18.792;2024-03-23T12:06:19;5.09;;;3.10;;
54143;SDS011;40050;47.324;18.792;2024-03-23T12:08:32;11.68;;;6.80;;
54143;SDS011;40050;47.324;18.792;2024-03-23T12:10:40;43.24;;;25.20;;
54143;SDS011;40050;47.324;18.792;2024-03-23T12:13:07;6.19;;;3.00;;
54143;SDS011;40050;47.324;18.792;2024-03-23T12:15:22;6.69;;;3.50;;
54143;SDS011;40050;47.324;18.792;2024-03-23T12:17:14;5.29;;;2.90;;
54143;SDS011;40050;47.324;18.792;2024-03-23T16:05:37;12.36;;;5.90;;
54143;SDS011;40050;47.324;18.792;2024-03-23T16:07:38;12.56;;;5.40;;
54143;SDS011;40050;47.324;18.792;2024-03-23T16:09:39;11.86;;;5.80;;
54143;SDS011;40050;47.324;18.792;2024-03-23T16:11:40;14.45;;;6.60;;
54143;SDS011;40050;47.324;18.792;2024-03-23T16:13:41;13.95;;;5.10;;
54143;SDS011;40050;47.324;18.792;2024-03-23T16:15:42;9.17;;;4.60;;
54143;SDS011;40050;47.324;18.792;2024-03-23T16:17:43;10.56;;;5.50;;
54143;SDS011;40050;47.324;18.792;2024-03-23T16:19:44;13.45;;;6.00;;
54143;SDS011;40050;47.324;18.792;2024-03-23T16:21:45;11.06;;;5.70;;
54143;SDS011;40050;47.324;18.792;2024-03-23T16:23:46;10.36;;;5.70;;
54143;SDS011;40050;47.324;18.792;2024-03-23T16:25:49;14.94;;;6.80;;
54143;SDS011;40050;47.324;18.792;2024-03-23T16:27:48;16.93;;;8.50;;
54143;SDS011;40050;47.324;18.792;2024-03-23T16:29:49;15.43;;;8.40;;
54143;SDS011;40050;47.324;18.792;2024-03-23T16:31:49;23.00;;;11.90;;
54143;SDS011;40050;47.324;18.792;2024-03-23T16:33:50;23.40;;;13.00;;
54143;SDS011;40050;47.324;18.792;2024-03-23T16:35:58;38.24;;;21.50;;
54143;SDS011;40050;47.324;18.792;2024-03-23T16:37:52;52.88;;;28.79;;
54143;SDS011;40050;47.324;18.792;2024-03-23T16:39:53;55.67;;;31.49;;
54143;SDS011;40050;47.324;18.792;2024-03-23T16:41:56;59.36;;;31.29;;
54143;SDS011;40050;47.324;18.792;2024-03-23T16:43:57;42.91;;;25.49;;